Time;durP1;ratioP1;P1;durP2;ratioP2;P2;SDS_P1;SDS_P2;PMS_P1;PMS_P2;Temp;Humidity;BMP_temperature;BMP_pressure;BME280_temperature;BME280_humidity;BME280_pressure;Samples;Min_cycle;Max_cycle;Signal;HPM_P1;HPM_P2
2023/02/01 00:00:14;;;;;;;;;;;;;;;18.11;60.28;100392.99;2238089;78;49563;-73
2023/02/01 00:03:18;;;;;;;;;;;;;;;18.24;60.02;100386.49;2267997;77;51456;-72
2023/02/01 00:06:19;;;;;;;;;;;;;;;18.31;59.76;100387.38;2261992;77;22179;-75
2023/02/01 00:09:21;;;;;;;;;;;;;;;18.32;59.88;100382.36;2238124;78;51544;-73
2023/02/01 00:12:22;;;;;;;;;;;;;;;18.29;59.89;100389.44;2212736;78;50106;-72
2023/02/01 00:15:24;;;;;;;;;;;;;;;18.28;59.78;100385.08;2238186;78;50732;-74
2023/02/01 00:18:26;;;;;;;;;;;;;;;18.25;60.01;100388.14;2259052;78;52244;-72
2023/02/01 00:21:27;;;;;;;;;;;;;;;18.21;59.97;100382.83;2238251;78;51471;-73
2023/02/01 00:24:29;;;;;;;;;;;;;;;18.16;60.01;100380.73;2214015;78;52622;-74
2023/02/01 00:27:30;;;;;;;;;;;;;;;18.10;60.11;100384.65;2258924;78;50082;-73
2023/02/01 00:30:32;;;;;;;;;;;;;;;18.00;60.22;100385.75;2259091;78;50342;-73
2023/02/01 00:33:33;;;;;;;;;;;;;;;18.00;60.36;100384.41;2269100;76;50261;-73
2023/02/01 00:36:35;;;;;;;;;;;;;;;18.02;60.45;100379.70;2296786;77;51669;-72
2023/02/01 00:39:37;;;;;;;;;;;;;;;18.09;60.44;100377.64;2252439;78;50393;-73
2023/02/01 00:42:38;;;;;;;;;;;;;;;18.19;60.38;100374.17;2275819;78;50359;-73
2023/02/01 00:45:40;;;;;;;;;;;;;;;18.26;60.38;100375.06;2275057;78;50706;-75
2023/02/01 00:48:41;;;;;;;;;;;;;;;18.26;60.33;100383.09;2256573;78;50928;-73
2023/02/01 00:51:44;;;;;;;;;;;;;;;18.22;60.22;100383.98;2247161;78;52589;-73
2023/02/01 00:54:46;;;;;;;;;;;;;;;18.18;60.38;100385.87;2276906;78;50422;-73
2023/02/01 00:57:47;;;;;;;;;;;;;;;18.13;60.39;100393.64;2252280;78;50718;-73
2023/02/01 01:00:49;;;;;;;;;;;;;;;18.14;60.53;100398.00;2275602;77;51125;-75
2023/02/01 01:03:51;;;;;;;;;;;;;;;18.14;60.61;100402.02;2269928;77;50971;-72
2023/02/01 01:06:53;;;;;;;;;;;;;;;18.09;60.60;100409.26;2259049;78;50398;-72
2023/02/01 01:09:55;;;;;;;;;;;;;;;18.06;60.80;100400.27;2238103;78;50256;-72
2023/02/01 01:12:56;;;;;;;;;;;;;;;18.05;60.74;100400.75;2258939;78;50426;-73
2023/02/01 01:16:02;;;;;;;;;;;;;;;18.04;60.84;100407.13;2216262;78;52453;-74
2023/02/01 01:19:03;;;;;;;;;;;;;;;18.11;60.99;100395.67;2259219;78;22289;-72
2023/02/01 01:22:04;;;;;;;;;;;;;;;18.19;60.75;100384.88;2258914;78;51477;-75
2023/02/01 01:25:06;;;;;;;;;;;;;;;18.25;60.74;100382.78;2259107;78;51499;-72
2023/02/01 01:28:08;;;;;;;;;;;;;;;18.24;60.67;100381.13;2201060;78;52357;-72
2023/02/01 01:31:10;;;;;;;;;;;;;;;18.20;60.59;100380.66;2258119;78;50541;-73
2023/02/01 01:34:11;;;;;;;;;;;;;;;18.19;60.90;100372.83;2258969;78;51503;-74
2023/02/01 01:37:13;;;;;;;;;;;;;;;18.15;60.89;100369.67;2259035;78;52260;-71
2023/02/01 01:40:16;;;;;;;;;;;;;;;18.10;60.80;100360.55;2210780;79;50991;-73
2023/02/01 01:43:19;;;;;;;;;;;;;;;18.03;60.88;100353.76;2259459;78;51504;-72
2023/02/01 01:46:22;;;;;;;;;;;;;;;17.99;60.85;100357.84;2262490;78;51649;-73
2023/02/01 01:49:25;;;;;;;;;;;;;;;17.98;60.79;100355.69;2241077;79;51703;-72
2023/02/01 01:52:27;;;;;;;;;;;;;;;17.94;60.88;100339.66;2240903;77;50091;-72
2023/02/01 01:55:30;;;;;;;;;;;;;;;17.95;61.00;100341.82;2291059;77;50477;-74
2023/02/01 01:58:32;;;;;;;;;;;;;;;17.98;61.24;100351.67;2283703;77;51632;-73
2023/02/01 02:01:34;;;;;;;;;;;;;;;18.06;61.11;100345.37;2272675;77;50702;-73
2023/02/01 02:04:35;;;;;;;;;;;;;;;18.12;60.96;100349.97;2296479;77;51536;-74
2023/02/01 02:07:38;;;;;;;;;;;;;;;18.12;60.86;100349.16;2297729;77;50396;-73
2023/02/01 02:13:59;;;;;;;;;;;;;;;18.07;60.88;100353.72;2298178;77;22338;-73
2023/02/01 02:17:14;;;;;;;;;;;;;;;18.00;60.97;100345.59;2275602;77;50967;-74
2023/02/01 02:20:34;;;;;;;;;;;;;;;17.96;60.97;100345.66;2297197;77;51464;-72
2023/02/01 02:23:37;;;;;;;;;;;;;;;17.93;60.95;100348.72;2296998;77;50802;-73
2023/02/01 02:26:43;;;;;;;;;;;;;;;17.91;61.05;100356.09;2297037;77;50308;-75
2023/02/01 02:29:46;;;;;;;;;;;;;;;17.91;60.97;100343.23;2275348;77;51137;-72
2023/02/01 02:32:56;;;;;;;;;;;;;;;17.90;61.23;100341.55;2290308;77;51428;-72
2023/02/01 02:36:08;;;;;;;;;;;;;;;17.94;61.28;100340.17;2265349;77;50214;-72
2023/02/01 02:39:14;;;;;;;;;;;;;;;17.99;61.30;100342.61;2277683;78;50685;-72
2023/02/01 02:49:23;;;;;;;;;;;;;;;18.12;60.96;100329.07;2259233;78;22312;-73
2023/02/01 02:55:44;;;;;;;;;;;;;;;18.04;61.04;100340.20;2259287;78;22400;-72
2023/02/01 03:05:26;;;;;;;;;;;;;;;17.90;60.93;100331.66;2284699;77;22471;-73
2023/02/01 03:08:28;;;;;;;;;;;;;;;17.89;60.89;100336.71;2275295;77;51395;-75
2023/02/01 03:12:55;;;;;;;;;;;;;;;17.87;61.10;100324.53;2297102;77;51587;-74
2023/02/01 03:14:34;;;;;;;;;;;;;;;17.90;61.34;100326.31;2294051;77;22271;-72
2023/02/01 03:17:36;;;;;;;;;;;;;;;17.94;61.38;100318.24;2297061;77;50697;-72
2023/02/01 03:20:38;;;;;;;;;;;;;;;18.02;61.28;100315.97;2275207;77;49635;-72
2023/02/01 03:23:39;;;;;;;;;;;;;;;18.09;61.05;100310.70;2296975;77;51484;-72
2023/02/01 03:26:42;;;;;;;;;;;;;;;18.08;61.00;100311.19;2296951;77;50419;-73
2023/02/01 03:29:57;;;;;;;;;;;;;;;18.06;61.00;100310.58;2273987;77;51509;-73
2023/02/01 03:33:00;;;;;;;;;;;;;;;18.02;61.04;100298.05;2226862;80;52368;-72
2023/02/01 03:36:03;;;;;;;;;;;;;;;17.97;61.07;100289.75;2198210;80;52162;-72
2023/02/01 03:39:21;;;;;;;;;;;;;;;17.94;61.01;100286.12;2191656;81;51606;-72
2023/02/01 03:42:25;;;;;;;;;;;;;;;17.89;61.00;100290.38;2191697;81;51547;-73
2023/02/01 03:45:34;;;;;;;;;;;;;;;17.85;60.96;100283.22;2191529;81;49596;-74
2023/02/01 03:48:35;;;;;;;;;;;;;;;17.87;60.98;100281.70;2200919;80;51533;-73
2023/02/01 03:51:38;;;;;;;;;;;;;;;17.87;61.37;100273.16;2227382;80;50615;-74
2023/02/01 03:54:39;;;;;;;;;;;;;;;17.91;61.42;100274.97;2227151;80;51514;-73
2023/02/01 03:57:45;;;;;;;;;;;;;;;17.96;61.45;100265.36;2227120;78;49720;-72
2023/02/01 04:00:53;;;;;;;;;;;;;;;18.04;61.33;100273.27;2227201;80;51374;-72
2023/02/01 04:03:55;;;;;;;;;;;;;;;18.08;61.22;100276.91;2212305;80;50308;-72
2023/02/01 04:06:56;;;;;;;;;;;;;;;18.08;61.07;100274.23;2176700;80;51443;-73
2023/02/01 04:09:58;;;;;;;;;;;;;;;18.05;61.14;100282.13;2257432;78;51650;-72
2023/02/01 04:13:00;;;;;;;;;;;;;;;18.00;61.08;100275.16;2258881;78;50357;-73
2023/02/01 04:16:01;;;;;;;;;;;;;;;17.95;61.24;100278.40;2276503;78;50025;-73
2023/02/01 04:19:03;;;;;;;;;;;;;;;17.92;61.22;100265.91;2258159;78;50649;-74
2023/02/01 04:22:04;;;;;;;;;;;;;;;17.88;61.14;100278.00;2258559;78;51590;-73
2023/02/01 04:25:07;;;;;;;;;;;;;;;17.85;61.11;100281.88;2276580;78;51502;-72
2023/02/01 04:28:09;;;;;;;;;;;;;;;17.89;61.05;100282.35;2274994;78;51567;-72
2023/02/01 04:31:11;;;;;;;;;;;;;;;17.88;61.30;100277.52;2237959;78;51545;-73
2023/02/01 04:34:12;;;;;;;;;;;;;;;17.92;61.63;100276.11;2223567;78;52485;-73
2023/02/01 04:37:14;;;;;;;;;;;;;;;17.99;61.47;100273.00;2258817;78;52225;-72
2023/02/01 04:40:15;;;;;;;;;;;;;;;18.03;61.39;100264.08;2277673;78;50740;-72
2023/02/01 04:43:17;;;;;;;;;;;;;;;18.01;61.37;100273.66;2237749;78;51529;-73
2023/02/01 04:46:19;;;;;;;;;;;;;;;17.98;61.34;100271.36;2238055;78;52595;-72
2023/02/01 04:49:21;;;;;;;;;;;;;;;17.96;61.27;100272.05;2237912;78;51578;-72
2023/02/01 04:52:22;;;;;;;;;;;;;;;17.94;61.29;100274.59;2258795;78;50302;-73
2023/02/01 04:55:24;;;;;;;;;;;;;;;17.89;61.20;100267.12;2237952;78;50231;-72
2023/02/01 04:58:27;;;;;;;;;;;;;;;17.86;61.09;100267.50;2205164;78;51772;-74
2023/02/01 05:01:28;;;;;;;;;;;;;;;17.84;61.18;100255.62;2294504;77;49920;-73
2023/02/01 05:04:30;;;;;;;;;;;;;;;17.82;61.22;100252.30;2270179;77;50726;-74
2023/02/01 05:07:32;;;;;;;;;;;;;;;17.78;61.37;100254.20;2258863;78;50792;-72
2023/02/01 05:10:33;;;;;;;;;;;;;;;17.80;61.55;100249.50;2213580;78;50930;-73
2023/02/01 05:13:53;;;;;;;;;;;;;;;17.85;61.55;100244.41;2258601;78;51555;-74
2023/02/01 05:16:41;;;;;;;;;;;;;;;17.93;61.58;100242.98;2231185;78;22544;-73
2023/02/01 05:19:42;;;;;;;;;;;;;;;17.99;61.38;100238.72;2258767;78;50419;-72
2023/02/01 05:22:44;;;;;;;;;;;;;;;18.01;61.31;100236.17;2213660;78;51235;-72
2023/02/01 05:25:45;;;;;;;;;;;;;;;17.98;61.31;100232.54;2258803;78;50790;-72
2023/02/01 05:28:47;;;;;;;;;;;;;;;17.96;61.23;100231.89;2258824;78;51586;-72
2023/02/01 05:31:48;;;;;;;;;;;;;;;17.92;61.30;100227.10;2240211;77;51587;-71
2023/02/01 05:34:50;;;;;;;;;;;;;;;17.89;61.32;100227.48;2281093;77;50991;-73
2023/02/01 05:37:52;;;;;;;;;;;;;;;17.86;61.27;100228.69;2277574;78;51483;-72
2023/02/01 05:40:53;;;;;;;;;;;;;;;17.84;61.12;100230.72;2238017;78;50338;-72
2023/02/01 05:43:55;;;;;;;;;;;;;;;17.84;61.07;100222.69;2237672;78;50763;-74
2023/02/01 05:46:56;;;;;;;;;;;;;;;17.82;61.07;100224.20;2205826;78;50122;-73
2023/02/01 05:49:58;;;;;;;;;;;;;;;17.81;61.41;100230.59;2258914;78;50642;-72
2023/02/01 05:52:59;;;;;;;;;;;;;;;17.88;61.67;100225.33;2283778;77;50674;-73
2023/02/01 05:56:01;;;;;;;;;;;;;;;17.95;61.61;100219.51;2290191;77;51490;-72
2023/02/01 05:59:03;;;;;;;;;;;;;;;17.98;61.46;100221.83;2319621;76;52400;-73
2023/02/01 06:02:04;;;;;;;;;;;;;;;17.97;61.38;100206.77;2318410;76;51523;-74
2023/02/01 06:05:06;;;;;;;;;;;;;;;17.96;61.48;100217.17;2264445;78;50338;-75
2023/02/01 06:08:08;;;;;;;;;;;;;;;17.94;61.32;100203.66;2316399;77;50419;-75
2023/02/01 06:11:10;;;;;;;;;;;;;;;17.94;61.20;100209.02;2292096;77;52739;-76
2023/02/01 06:14:11;;;;;;;;;;;;;;;17.87;61.10;100208.92;2258590;78;50251;-76
2023/02/01 06:17:13;;;;;;;;;;;;;;;17.83;61.01;100217.85;2258859;78;50294;-77
2023/02/01 06:20:15;;;;;;;;;;;;;;;17.81;60.93;100206.50;2238361;78;50759;-77
2023/02/01 06:23:17;;;;;;;;;;;;;;;17.79;60.84;100203.66;2238859;78;52378;-77
2023/02/01 06:26:18;;;;;;;;;;;;;;;17.78;61.00;100200.67;2239310;78;50878;-77
2023/02/01 06:29:20;;;;;;;;;;;;;;;17.81;61.07;100201.66;2287023;77;50811;-77
2023/02/01 06:32:25;;;;;;;;;;;;;;;17.86;61.17;100201.92;2291543;77;51883;-77
2023/02/01 06:35:31;;;;;;;;;;;;;;;17.91;60.99;100203.53;2260720;78;22352;-78
2023/02/01 06:38:34;;;;;;;;;;;;;;;17.91;60.87;100199.52;2233013;78;49936;-78
2023/02/01 06:41:38;;;;;;;;;;;;;;;17.90;60.98;100199.17;2254126;78;21989;-77
2023/02/01 06:44:39;;;;;;;;;;;;;;;17.85;61.02;100196.23;2238191;78;51482;-77
2023/02/01 06:47:42;;;;;;;;;;;;;;;17.83;61.09;100195.62;2212869;78;51798;-77
2023/02/01 06:50:43;;;;;;;;;;;;;;;17.81;61.06;100195.80;2238234;78;50684;-77
2023/02/01 06:53:45;;;;;;;;;;;;;;;17.78;61.13;100189.97;2237744;78;51803;-77
2023/02/01 06:56:47;;;;;;;;;;;;;;;17.77;61.15;100188.30;2237857;78;50732;-77
2023/02/01 06:59:49;;;;;;;;;;;;;;;17.75;61.42;100176.46;2212320;78;52693;-76
2023/02/01 07:02:50;;;;;;;;;;;;;;;17.77;61.41;100170.91;2234186;77;50577;-76
2023/02/01 07:05:53;;;;;;;;;;;;;;;17.78;61.54;100171.23;2262982;78;51491;-76
2023/02/01 07:09:00;;;;;;;;;;;;;;;17.81;61.49;100172.23;2258750;78;51323;-75
2023/02/01 07:11:58;;;;;;;;;;;;;;;17.87;61.27;100163.42;2237696;78;22399;-77
2023/02/01 07:15:02;;;;;;;;;;;;;;;17.92;61.08;100167.70;2258954;78;50523;-76
2023/02/01 07:18:03;;;;;;;;;;;;;;;17.93;60.95;100159.16;2238682;78;23516;-77
2023/02/01 07:21:05;;;;;;;;;;;;;;;17.91;60.89;100156.69;2238219;78;51446;-77
2023/02/01 07:24:06;;;;;;;;;;;;;;;17.88;60.90;100160.23;2212522;78;50991;-75
2023/02/01 07:27:08;;;;;;;;;;;;;;;17.84;60.84;100162.47;2238075;78;50088;-76
2023/02/01 07:30:10;;;;;;;;;;;;;;;17.79;60.83;100150.99;2258968;78;50784;-76
2023/02/01 07:33:11;;;;;;;;;;;;;;;17.75;60.84;100155.53;2237585;78;50299;-76
2023/02/01 07:36:14;;;;;;;;;;;;;;;17.69;60.91;100138.91;2213840;78;49684;-77
2023/02/01 07:39:15;;;;;;;;;;;;;;;17.64;61.00;100140.30;2258967;78;50468;-76
2023/02/01 07:42:17;;;;;;;;;;;;;;;17.63;61.06;100130.62;2258777;78;51536;-76
2023/02/01 07:45:20;;;;;;;;;;;;;;;17.71;60.99;100131.53;2258880;78;50712;-77
2023/02/01 07:48:22;;;;;;;;;;;;;;;17.76;60.92;100133.13;2214151;78;50272;-76
2023/02/01 07:51:23;;;;;;;;;;;;;;;17.83;60.74;100131.39;2238100;78;50272;-74
2023/02/01 07:54:25;;;;;;;;;;;;;;;17.92;60.49;100136.92;2258595;78;50286;-75
2023/02/01 07:57:26;;;;;;;;;;;;;;;17.94;60.37;100130.88;2258539;78;50719;-74
2023/02/01 08:03:48;;;;;;;;;;;;;;;17.94;60.27;100131.39;2280099;77;22267;-74
2023/02/01 08:06:49;;;;;;;;;;;;;;;17.90;60.28;100135.45;2258812;78;51560;-74
2023/02/01 08:09:51;;;;;;;;;;;;;;;17.86;60.29;100123.48;2258862;78;51509;-74
2023/02/01 08:12:53;;;;;;;;;;;;;;;17.79;60.38;100123.38;2244323;78;52362;-74
2023/02/01 08:16:01;;;;;;;;;;;;;;;17.76;60.47;100123.25;2249197;78;50421;-73
2023/02/01 08:19:02;;;;;;;;;;;;;;;17.72;60.57;100127.83;2265906;76;51340;-74
2023/02/01 08:22:06;;;;;;;;;;;;;;;17.74;60.56;100123.94;2294324;77;51718;-74
2023/02/01 08:25:07;;;;;;;;;;;;;;;17.77;60.52;100123.55;2238522;78;22347;-75
2023/02/01 08:28:09;;;;;;;;;;;;;;;17.95;60.17;100129.84;2258490;78;50400;-75
2023/02/01 08:31:12;;;;;;;;;;;;;;;18.00;60.09;100132.77;2260138;77;50749;-74
2023/02/01 08:34:13;;;;;;;;;;;;;;;18.03;60.03;100124.38;2249821;78;51596;-75
2023/02/01 08:37:15;;;;;;;;;;;;;;;18.07;59.90;100128.83;2277783;78;51754;-75
2023/02/01 08:40:16;;;;;;;;;;;;;;;18.02;60.08;100138.77;2258418;78;51431;-72
2023/02/01 08:43:19;;;;;;;;;;;;;;;18.05;59.98;100122.31;2238610;77;51373;-72
2023/02/01 08:46:20;;;;;;;;;;;;;;;17.97;60.27;100135.02;2283902;77;50460;-72
2023/02/01 08:49:22;;;;;;;;;;;;;;;17.92;60.33;100134.24;2271340;77;52327;-72
2023/02/01 08:52:24;;;;;;;;;;;;;;;17.90;60.39;100136.27;2297471;77;50640;-72
2023/02/01 08:55:26;;;;;;;;;;;;;;;17.80;60.70;100134.42;2295093;77;53385;-72
2023/02/01 08:58:27;;;;;;;;;;;;;;;17.75;60.80;100140.82;2268885;77;50747;-71
2023/02/01 09:01:29;;;;;;;;;;;;;;;17.78;60.68;100140.47;2216092;78;50116;-71
2023/02/01 09:04:31;;;;;;;;;;;;;;;17.88;60.47;100149.53;2260759;77;50800;-72
2023/02/01 09:07:33;;;;;;;;;;;;;;;17.92;60.35;100152.98;2295352;77;50748;-71
2023/02/01 09:10:35;;;;;;;;;;;;;;;18.00;60.12;100158.72;2291300;77;50331;-71
2023/02/01 09:13:36;;;;;;;;;;;;;;;18.05;59.90;100161.65;2295925;77;51080;-72
2023/02/01 09:16:38;;;;;;;;;;;;;;;18.12;59.69;100163.06;2274000;77;51419;-74
2023/02/01 09:19:39;;;;;;;;;;;;;;;18.09;59.65;100162.11;2262211;78;51735;-72
2023/02/01 09:22:41;;;;;;;;;;;;;;;18.00;59.80;100172.92;2259113;78;51502;-72
2023/02/01 09:25:43;;;;;;;;;;;;;;;18.01;59.75;100170.59;2261718;77;53682;-72
2023/02/01 09:28:44;;;;;;;;;;;;;;;18.01;59.75;100181.81;2259972;77;51425;-74
2023/02/01 09:31:46;;;;;;;;;;;;;;;17.98;59.72;100185.70;2265421;77;50407;-72
2023/02/01 09:34:47;;;;;;;;;;;;;;;17.91;59.89;100194.16;2241202;79;49922;-73
2023/02/01 09:37:49;;;;;;;;;;;;;;;17.79;60.17;100194.30;2220487;78;49450;-73
2023/02/01 09:40:50;;;;;;;;;;;;;;;17.77;60.30;100196.33;2240215;78;50733;-73
2023/02/01 09:44:09;;;;;;;;;;;;;;;17.80;60.21;100194.63;2240005;78;51440;-71
2023/02/01 09:47:12;;;;;;;;;;;;;;;17.90;59.99;100197.02;2278949;77;51480;-71
2023/02/01 09:50:20;;;;;;;;;;;;;;;17.99;59.77;100204.74;2251413;77;50985;-73
2023/02/01 09:53:23;;;;;;;;;;;;;;;18.03;59.60;100218.08;2265098;77;22970;-71
2023/02/01 09:56:26;;;;;;;;;;;;;;;18.04;59.54;100221.58;2272769;77;51650;-71
2023/02/01 09:59:46;;;;;;;;;;;;;;;18.05;59.46;100228.06;2272500;77;50989;-74
2023/02/01 10:02:47;;;;;;;;;;;;;;;18.05;59.43;100222.71;2266236;77;50762;-75
2023/02/01 10:05:50;;;;;;;;;;;;;;;18.03;59.75;100224.77;2256570;77;50767;-74
2023/02/01 10:09:10;;;;;;;;;;;;;;;17.91;59.84;100227.62;2268230;77;51575;-74
2023/02/01 10:12:19;;;;;;;;;;;;;;;17.83;60.00;100223.72;2266702;78;51469;-72
2023/02/01 10:15:39;;;;;;;;;;;;;;;17.83;60.07;100219.70;2266885;78;51543;-73
2023/02/01 10:18:42;;;;;;;;;;;;;;;17.80;60.06;100221.39;2301231;77;50343;-72
2023/02/01 10:21:55;;;;;;;;;;;;;;;17.77;60.10;100217.22;2280889;77;51448;-72
2023/02/01 10:25:07;;;;;;;;;;;;;;;17.79;60.07;100224.59;2284928;77;51506;-72
2023/02/01 10:28:10;;;;;;;;;;;;;;;17.86;59.92;100227.87;2294302;76;50221;-71
2023/02/01 10:31:13;;;;;;;;;;;;;;;17.94;59.70;100231.77;2298727;77;50812;-71
2023/02/01 10:34:22;;;;;;;;;;;;;;;17.93;59.85;100226.92;2276359;77;25570;-73
2023/02/01 10:37:31;;;;;;;;;;;;;;;17.98;59.64;100224.99;2289379;77;50443;-71
2023/02/01 10:40:33;;;;;;;;;;;;;;;17.97;59.69;100232.20;2299649;76;50802;-71
2023/02/01 10:43:35;;;;;;;;;;;;;;;17.95;59.76;100238.25;2301977;76;51523;-72
2023/02/01 10:46:37;;;;;;;;;;;;;;;17.94;59.93;100237.94;2302221;77;51578;-71
2023/02/01 10:49:40;;;;;;;;;;;;;;;17.93;60.02;100234.95;2261655;76;51645;-71
2023/02/01 10:52:49;;;;;;;;;;;;;;;17.92;59.94;100233.28;2278506;77;52533;-71
2023/02/01 10:55:51;;;;;;;;;;;;;;;17.91;59.92;100243.67;2304945;77;51618;-71
2023/02/01 10:58:54;;;;;;;;;;;;;;;17.91;59.92;100237.50;2301450;77;50141;-72
2023/02/01 11:02:13;;;;;;;;;;;;;;;17.92;59.98;100243.16;2296301;76;50312;-71
2023/02/01 11:05:16;;;;;;;;;;;;;;;17.93;59.87;100239.45;2218082;78;52735;-71
2023/02/01 11:08:17;;;;;;;;;;;;;;;17.97;59.76;100240.23;2265996;78;50185;-72
2023/02/01 11:11:20;;;;;;;;;;;;;;;17.98;59.83;100235.70;2233321;77;50343;-73
2023/02/01 11:14:26;;;;;;;;;;;;;;;17.98;59.78;100213.80;2230842;78;50211;-72
2023/02/01 11:17:35;;;;;;;;;;;;;;;17.98;59.70;100217.81;2204255;79;51685;-72
2023/02/01 11:20:40;;;;;;;;;;;;;;;17.97;59.72;100217.48;2201115;79;51513;-72
2023/02/01 11:23:43;;;;;;;;;;;;;;;17.96;59.73;100211.00;2192154;81;50782;-71
2023/02/01 11:26:45;;;;;;;;;;;;;;;17.95;59.56;100205.30;2224192;78;51443;-71
2023/02/01 11:29:48;;;;;;;;;;;;;;;17.90;59.51;100208.54;2205637;79;51807;-72
2023/02/01 11:32:49;;;;;;;;;;;;;;;17.82;57.51;100195.28;2234165;78;50103;-72
2023/02/01 11:35:51;;;;;;;;;;;;;;;17.74;56.96;100198.05;2237668;78;50693;-72
2023/02/01 11:38:54;;;;;;;;;;;;;;;17.68;56.94;100184.91;2215221;77;51405;-71
2023/02/01 11:42:03;;;;;;;;;;;;;;;17.68;57.30;100179.56;2241698;78;50158;-72
2023/02/01 11:45:09;;;;;;;;;;;;;;;17.73;57.42;100181.16;2266795;78;50782;-71
2023/02/01 11:48:12;;;;;;;;;;;;;;;17.83;57.30;100179.56;2266629;77;51496;-72
2023/02/01 11:51:26;;;;;;;;;;;;;;;17.93;57.43;100179.23;2294230;77;51653;-72
2023/02/01 11:54:43;;;;;;;;;;;;;;;17.96;57.59;100170.84;2288409;77;22396;-72
2023/02/01 11:58:03;;;;;;;;;;;;;;;18.06;57.61;100168.16;2289654;77;51662;-72
2023/02/01 12:01:15;;;;;;;;;;;;;;;18.13;57.55;100170.06;2277919;77;50410;-73
2023/02/01 12:04:22;;;;;;;;;;;;;;;18.14;57.68;100162.37;2290705;77;51421;-72
2023/02/01 12:07:25;;;;;;;;;;;;;;;18.12;57.96;100169.75;2247500;77;52663;-72
2023/02/01 12:10:34;;;;;;;;;;;;;;;18.10;58.07;100157.06;2264393;78;51538;-72
2023/02/01 12:13:43;;;;;;;;;;;;;;;18.08;58.15;100158.59;2300321;77;51516;-72
2023/02/01 12:16:46;;;;;;;;;;;;;;;18.03;58.35;100155.16;2284945;77;50809;-70
2023/02/01 12:19:55;;;;;;;;;;;;;;;18.01;58.45;100146.48;2250056;77;52668;-70
2023/02/01 12:22:59;;;;;;;;;;;;;;;17.97;58.62;100146.55;2276447;77;50309;-72
2023/02/01 12:26:19;;;;;;;;;;;;;;;17.91;58.77;100141.97;2285805;77;50465;-72
2023/02/01 12:29:37;;;;;;;;;;;;;;;17.90;58.86;100140.80;2286590;77;50662;-74
2023/02/01 12:32:49;;;;;;;;;;;;;;;17.84;58.97;100123.67;2279189;77;51514;-72
2023/02/01 12:36:04;;;;;;;;;;;;;;;17.81;59.18;100138.77;2281453;77;50426;-72
2023/02/01 12:39:08;;;;;;;;;;;;;;;17.77;59.15;100126.23;2283343;77;50432;-72
2023/02/01 12:42:14;;;;;;;;;;;;;;;17.74;59.38;100119.11;2288783;76;50784;-72
2023/02/01 12:45:20;;;;;;;;;;;;;;;17.70;59.38;100112.47;2261795;77;52633;-71
2023/02/01 12:48:23;;;;;;;;;;;;;;;17.64;59.47;100096.16;2290719;77;51555;-72
2023/02/01 12:51:32;;;;;;;;;;;;;;;17.62;59.60;100090.67;2301842;77;51465;-71
2023/02/01 12:54:48;;;;;;;;;;;;;;;17.62;59.62;100088.85;2276296;77;52672;-72
2023/02/01 12:57:51;;;;;;;;;;;;;;;17.58;59.84;100085.41;2276548;77;52585;-72
2023/02/01 13:00:54;;;;;;;;;;;;;;;17.61;59.94;100077.81;2302371;77;50791;-72
2023/02/01 13:04:11;;;;;;;;;;;;;;;17.69;59.79;100081.39;2285366;76;50703;-74
2023/02/01 13:07:17;;;;;;;;;;;;;;;17.76;59.87;100069.73;2280558;77;50410;-71
2023/02/01 13:10:20;;;;;;;;;;;;;;;17.91;59.44;100065.69;2256355;78;52711;-72
2023/02/01 13:13:40;;;;;;;;;;;;;;;17.98;59.21;100067.91;2266581;78;50802;-71
2023/02/01 13:16:43;;;;;;;;;;;;;;;17.96;59.26;100068.61;2266819;78;50879;-72
2023/02/01 13:19:46;;;;;;;;;;;;;;;17.94;59.33;100080.02;2266803;78;51666;-71
2023/02/01 13:22:50;;;;;;;;;;;;;;;17.90;59.41;100074.72;2267963;78;49728;-73
2023/02/01 13:25:51;;;;;;;;;;;;;;;17.83;59.48;100084.56;2266871;78;50649;-71
2023/02/01 13:29:04;;;;;;;;;;;;;;;17.78;59.67;100089.62;2266832;78;51508;-72
2023/02/01 13:32:10;;;;;;;;;;;;;;;17.77;59.67;100083.94;2266000;78;50721;-71
2023/02/01 13:35:19;;;;;;;;;;;;;;;17.69;59.65;100100.94;2255308;78;52435;-72
2023/02/01 13:38:28;;;;;;;;;;;;;;;17.66;59.81;100095.98;2266833;78;51556;-72
2023/02/01 13:41:31;;;;;;;;;;;;;;;17.67;59.97;100090.93;2266845;78;50494;-71
2023/02/01 13:44:34;;;;;;;;;;;;;;;17.72;59.93;100081.83;2266717;78;51652;-72
2023/02/01 13:47:37;;;;;;;;;;;;;;;17.86;59.49;100077.48;2265958;78;51014;-74
2023/02/01 13:50:40;;;;;;;;;;;;;;;17.90;59.30;100065.34;2266642;78;51524;-72
2023/02/01 13:53:46;;;;;;;;;;;;;;;17.89;59.20;100065.04;2266572;78;50372;-72
2023/02/01 13:56:47;;;;;;;;;;;;;;;17.83;59.34;100056.45;2266954;78;50793;-72
2023/02/01 13:59:50;;;;;;;;;;;;;;;17.83;59.27;100052.44;2266900;78;50635;-72
2023/02/01 14:03:02;;;;;;;;;;;;;;;17.79;59.33;100041.27;2224116;78;52664;-72
2023/02/01 14:06:05;;;;;;;;;;;;;;;17.75;59.42;100048.02;2266724;78;51553;-72
2023/02/01 14:09:10;;;;;;;;;;;;;;;17.71;59.57;100044.58;2266890;78;50307;-72
2023/02/01 14:12:30;;;;;;;;;;;;;;;17.62;59.84;100042.52;2266589;78;50328;-73
2023/02/01 14:15:31;;;;;;;;;;;;;;;17.60;59.88;100042.73;2243331;78;52577;-73
2023/02/01 14:18:40;;;;;;;;;;;;;;;17.66;59.76;100043.80;2266876;78;51452;-73
2023/02/01 14:21:58;;;;;;;;;;;;;;;17.70;59.73;100031.71;2267158;78;22293;-72
2023/02/01 14:25:00;;;;;;;;;;;;;;;17.84;59.41;100024.13;2242528;78;53660;-73
2023/02/01 14:28:01;;;;;;;;;;;;;;;17.99;59.06;100013.34;2262967;77;52533;-72
2023/02/01 14:31:03;;;;;;;;;;;;;;;18.01;58.99;100003.27;2304945;77;50671;-73
2023/02/01 14:34:16;;;;;;;;;;;;;;;17.98;59.01;100000.99;2249255;78;52237;-73
2023/02/01 14:37:24;;;;;;;;;;;;;;;17.98;59.03;99995.64;2280145;77;50441;-73
2023/02/01 14:40:26;;;;;;;;;;;;;;;17.89;59.35;99986.09;2301549;76;22173;-72
2023/02/01 14:43:46;;;;;;;;;;;;;;;17.87;59.61;99984.63;2302170;77;51582;-72
2023/02/01 14:47:03;;;;;;;;;;;;;;;17.87;59.72;99985.97;2302337;77;50393;-71
2023/02/01 14:50:12;;;;;;;;;;;;;;;17.81;59.94;99980.89;2302302;77;52038;-73
2023/02/01 14:53:16;;;;;;;;;;;;;;;17.73;60.21;99971.12;2262969;77;50922;-74
2023/02/01 14:56:20;;;;;;;;;;;;;;;17.71;60.46;99967.80;2256839;78;51231;-73
2023/02/01 14:59:22;;;;;;;;;;;;;;;17.74;60.43;99963.91;2279440;77;50797;-74
2023/02/01 15:02:25;;;;;;;;;;;;;;;17.82;60.25;99968.63;2279373;77;50529;-72
2023/02/01 15:05:33;;;;;;;;;;;;;;;17.86;60.21;99958.38;2281063;77;51644;-72
2023/02/01 15:08:36;;;;;;;;;;;;;;;17.88;60.21;99952.81;2273666;77;50363;-72
2023/02/01 15:11:57;;;;;;;;;;;;;;;17.87;60.19;99942.63;2302405;77;51547;-72
2023/02/01 15:15:16;;;;;;;;;;;;;;;17.84;60.29;99951.05;2271579;77;52403;-71
2023/02/01 15:18:18;;;;;;;;;;;;;;;17.87;60.18;99968.05;2268661;78;50995;-72
2023/02/01 15:21:21;;;;;;;;;;;;;;;17.82;60.28;99963.80;2247423;77;51546;-72
2023/02/01 15:24:24;;;;;;;;;;;;;;;17.75;60.39;99969.57;2266021;78;51639;-71
2023/02/01 15:27:26;;;;;;;;;;;;;;;17.73;60.46;99972.97;2274283;77;50395;-73
2023/02/01 15:30:29;;;;;;;;;;;;;;;17.67;60.53;99950.98;2254803;78;51122;-72
2023/02/01 15:33:30;;;;;;;;;;;;;;;17.66;60.67;99967.56;2273687;77;50429;-71
2023/02/01 15:36:33;;;;;;;;;;;;;;;17.71;60.68;99970.48;2281167;77;51599;-71
2023/02/01 15:39:37;;;;;;;;;;;;;;;17.81;60.70;99960.81;2266952;77;50315;-72
2023/02/01 15:42:43;;;;;;;;;;;;;;;17.88;60.65;99970.21;2262054;77;22455;-71
2023/02/01 15:45:44;;;;;;;;;;;;;;;17.91;60.81;99974.68;2302653;76;51625;-73
2023/02/01 15:48:47;;;;;;;;;;;;;;;17.89;60.71;99978.06;2302454;77;51452;-73
2023/02/01 15:51:49;;;;;;;;;;;;;;;17.90;60.76;99976.20;2300028;76;53703;-72
2023/02/01 15:54:52;;;;;;;;;;;;;;;17.88;60.69;99980.92;2303450;76;51135;-73
2023/02/01 15:57:54;;;;;;;;;;;;;;;17.84;60.59;99975.14;2302413;77;50008;-73
2023/02/01 16:00:57;;;;;;;;;;;;;;;17.81;60.58;99980.89;2303374;77;50747;-73
2023/02/01 16:04:12;;;;;;;;;;;;;;;17.76;60.53;99984.63;2268698;77;50695;-72
2023/02/01 16:07:25;;;;;;;;;;;;;;;17.68;60.73;99996.80;2248568;76;50963;-70
2023/02/01 16:10:27;;;;;;;;;;;;;;;17.66;60.73;100018.91;2283759;77;51560;-72